< < Back
Terminal Aerodrome Forecast


Current Version              Previous Versions:   1  2  3  4  5  6  7  8  9  

Terminal Aerodrome Forecast

707
FTUS42 KCHS 242330
TAFCHS
TAF
KCHS 242330Z 2500/2524 10008KT P6SM FEW040
     FM251400 12012KT P6SM BKN040
     FM251800 12013G19KT P6SM BKN050=



Latest METAR

392
SAUS80 KWBC 260100 CCA
MTRCHS
METAR KCHS 260056Z 12007KT 10SM FEW020 SCT250 23/19 A3026 RMK AO2 SLP246
T02330194


USA.gov is the U.S. government's official web portal to all federal, state and local government web resources and services.